ADDS METAR Data INFO
IDs: Format: Raw Decoded Include TAF

Data at: 0031 UTC 23 Feb 2018

KCLL 222353Z 34008KT 3/4SM BR OVC002 07/07 A3021 RMK AO2 RAB12E27 SLP228 P0000 60000 T00670067 10083 20067 53005
KCLL 222253Z 31008KT 3/4SM BR OVC002 07/07 A3019 RMK AO2 RAB37E47 SLP224 P0000 T00670067
KCLL 222153Z 31009KT 3/4SM BR OVC002 07/07 A3019 RMK AO2 RAB01E12 SLP223 P0000 T00720072
KCLL 222150Z 30008KT 3/4SM BR OVC002 07/07 A3019 RMK AO2 RAB01E12 P0000
KCLL 222140Z 30008KT 1SM BR OVC002 07/07 A3019 RMK AO2 RAB01E12 P0000 T00720072
KCLL 222131Z 31008KT 3/4SM BR OVC002 08/08 A3019 RMK AO2 RAB01E12 P0000 T00780078
KCLL 222112Z 30006KT 1SM BR OVC002 08/08 A3018 RMK AO2 RAB01E12 P0000 T00780078
KCLL 222053Z 31005KT 3/4SM BR OVC002 07/07 A3019 RMK AO2 RAB29E39 SLP221 P0000 60000 T00720072 56012
KCLL 222051Z 30007KT 3/4SM BR OVC002 08/08 A3019 RMK AO2 RAB29E39 P0000
KCLL 221953Z 29006KT 1 1/2SM BR OVC002 08/08 A3020 RMK AO2 RAB14E40 SLP227 P0000 T00830083
KCLL 221853Z 35003KT 1 1/2SM BR OVC003 08/08 A3022 RMK AO2 SLP233 T00780078
KCLL 221753Z 34005KT 1 1/2SM BR OVC003 07/07 A3024 RMK AO2 SLP240 60001 T00720072 10078 20050 58005
KCLL 221653Z 32006KT 1 1/2SM BR OVC003 07/07 A3026 RMK AO2 SLP245 T00670067
KCLL 221553Z 32006KT 1 1/2SM BR OVC003 06/06 A3026 RMK AO2 LTG DSNT N AND NW SLP247 T00610061
KCLL 221453Z 36007KT 1SM BR OVC003 06/06 A3026 RMK AO2 RAE1357 SLP245 P0000 60001 T00560056 53012
KCLL 221353Z 33007KT 1 1/2SM -RA BR OVC003 06/06 A3025 RMK AO2 RAB08E19B39 SLP242 P0000 T00560056
KCLL 221331Z AUTO 36008KT 1 1/4SM BR OVC003 05/05 A3023 RMK AO2 LTG DSNT NW RAB08E19 P0000 T00500050
KCLL 221253Z AUTO 01006KT 2 1/2SM BR OVC003 05/05 A3023 RMK AO2 RAB30E47 SLP237 P0001 T00500050
KCLL 221236Z AUTO 35006KT 2 1/2SM -RA BR OVC003 05/05 A3023 RMK AO2 RAB30 P0001 T00500050
KCLL 221207Z AUTO 01007KT 3SM BR OVC003 05/05 A3023 RMK AO2 T00500050
KCLL 221153Z AUTO 35008KT 2 1/2SM BR OVC003 05/05 A3022 RMK AO2 LTG DSNT S RAB30E39 SLP234 P0000 60000 70024 T00500050 10061 20050 56001
KCLL 221149Z AUTO 36008KT 2 1/2SM BR OVC003 05/05 A3022 RMK AO2 LTG DSNT S RAB30E39 P0000
KCLL 221053Z AUTO 36010KT 3SM BR OVC004 05/05 A3022 RMK AO2 SLP234 T00500050
KCLL 220953Z AUTO 35009KT 3SM BR OVC003 05/05 A3022 RMK AO2 RAE43 SLP234 P0000 T00500050
KCLL 220853Z AUTO 35010KT 3SM -RA BR OVC003 06/06 A3022 RMK AO2 RAB53 SLP232 P0000 60000 T00560056 58008
KCLL 220753Z AUTO 35012KT 4SM BR OVC003 06/06 A3023 RMK AO2 SLP238 T00560056
KCLL 220653Z AUTO 35006KT 4SM BR OVC003 06/06 A3025 RMK AO2 SLP242 T00560056
KCLL 220553Z AUTO 34009KT 3SM BR OVC002 06/06 A3024 RMK AO2 SLP240 60001 T00610061 10072 20061 402170061 58001
KCLL 220453Z AUTO 34009KT 5SM BR OVC004 07/07 A3025 RMK AO2 RAE26 SLP241 P0000 T00670067
KCLL 220438Z AUTO 34008KT 5SM BR OVC004 07/07 A3024 RMK AO2 RAE26 P0000 T00670067
KCLL 220353Z AUTO 34011KT 3SM -RA BR BKN005 OVC011 07/07 A3025 RMK AO2 RAB15 SLP241 P0001 T00720067
KCLL 220350Z AUTO 32008KT 3SM -RA BR BKN005 OVC011 07/07 A3025 RMK AO2 RAB15 P0001
KCLL 212353Z 35010KT 10SM OVC007 06/06 A3017 RMK AO2 LTG DSNT W AND NW SLP216 60015 T00610056 10100 20061 51017
KCLL 212253Z 36012KT 6SM BR OVC008 06/06 A3015 RMK AO2 LTG DSNT E AND NW RAE10 SLP208 P0001 T00610056
KCLL 212156Z 33013KT 3SM -RA BR OVC007 07/06 A3016 RMK AO2 P0001 T00670061
KCLL 212151Z 33013KT 1 3/4SM RA BR OVC007 07/06 A3016 RMK AO2 SLP211 P0004 T00670061
KCLL 212150Z 33013KT 1 3/4SM +RA BR OVC007 07/06 A3015 RMK AO2 P0004
KCLL 212053Z 35015G19KT 3SM -RA BR OVC005 07/07 A3012 RMK AO2 RAE22B53 SLP198 P0000 60010 T00720072 58006
KCLL 212013Z 33010G21KT 5SM -RA BR OVC006 08/08 A3012 RMK AO2 P0000 T00830083
KCLL 212006Z 34015G21KT 5SM -RA BR OVC004 08/08 A3012 RMK AO2 P0000 T00830078
KCLL 211953Z 33013KT 4SM -RA BR OVC005 08/08 A3013 RMK AO2 SLP199 P0001 T00830083
KCLL 211853Z 32011KT 5SM -RA BR BKN006 OVC012 09/09 A3014 RMK AO2 SLP202 P0009 T00940089
KCLL 211848Z 33012KT 4SM -RA BR BKN006 OVC012 09/09 A3014 RMK AO2 P0009
KCLL 211829Z 33010KT 2SM +RA BR OVC006 09/09 A3014 RMK AO2 P0006 T00940089
KCLL 211753Z 36010KT 10SM -RA OVC007 09/09 A3014 RMK AO2 SLP202 P0001 60008 T00940089 10094 20072 58005
KCLL 211653Z 36008KT 8SM -RA OVC007 09/08 A3015 RMK AO2 LTG DSNT NE RAE01B23 SLP208 P0001 T00890083
KCLL 211643Z 01006KT 10SM -RA OVC007 08/08 A3016 RMK AO2 LTG DSNT NE RAE01B23 P0001 T00830078
KCLL 211619Z 01009KT 10SM VCTS OVC008 08/08 A3016 RMK AO2 LTG DSNT NE AND E RAE01 P0000 T00830078
KCLL 211553Z 02010KT 10SM -RA OVC008 08/07 A3016 RMK AO2 LTG DSNT NE AND E SLP209 P0001 T00830072
KCLL 211453Z 01013KT 8SM -RA OVC007 07/07 A3015 RMK AO2 LTG DSNT E-S RAB1357E19B27 SLP207 P0002 60005 T00720067 53004
KCLL 211423Z 36013G21KT 10SM VCTS OVC008 07/07 A3015 RMK AO2 LTG DSNT E RAB1357E19 P0002 T00720067
KCLL 211353Z 36011G19KT 10SM OVC008 07/07 A3014 RMK AO2 RAE47 SLP204 P0001 T00720067
KCLL 211253Z AUTO 33017KT 5SM -RA BR OVC005 08/08 A3014 RMK AO2 RAB1158 SLP204 P0002 T00780078
KCLL 211237Z AUTO 34015G20KT 7SM -RA OVC005 08/08 A3014